Time,TemperatureF,DewpointF,PressureIn,WindDirection,WindDirectionDegrees,WindSpeedMPH,WindSpeedGustMPH,Humidity,HourlyPrecipIn,Conditions,Clouds,dailyrainin,SoftwareType,DateUTC
2013-02-28 01:05:00,45.5,36.7,30.28,North,-999,-999.0,-999.0,71,-99.99,,,-99.99,Netatmo,2013-02-28 00:05:00,
2013-02-28 05:16:00,43.3,36.0,30.27,North,-999,-999.0,-999.0,75,-99.99,,,-99.99,Netatmo,2013-02-28 04:16:00,
2013-02-28 12:19:00,53.6,42.6,30.31,North,-999,-999.0,-999.0,66,-99.99,,,-99.99,Netatmo,2013-02-28 11:19:00,
2013-02-28 12:54:00,54.5,43.9,30.31,North,-999,-999.0,-999.0,67,-99.99,,,-99.99,Netatmo,2013-02-28 11:54:00,
2013-02-28 12:55:00,54.5,43.9,30.31,North,-999,-999.0,-999.0,67,-99.99,,,-99.99,Netatmo,2013-02-28 11:55:00,
2013-02-28 14:55:00,55.4,44.8,30.27,North,-999,-999.0,-999.0,67,-99.99,,,-99.99,Netatmo,2013-02-28 13:55:00,
2013-02-28 15:00:00,55.4,44.8,30.27,North,-999,-999.0,-999.0,67,-99.99,,,-99.99,Netatmo,2013-02-28 14:00:00,
2013-02-28 15:05:00,55.4,44.8,30.27,North,-999,-999.0,-999.0,67,-99.99,,,-99.99,Netatmo,2013-02-28 14:05:00,
2013-02-28 16:32:00,55.2,44.6,30.26,North,-999,-999.0,-999.0,67,-99.99,,,-99.99,Netatmo,2013-02-28 15:32:00,
2013-02-28 18:04:00,53.6,43.8,30.25,North,-999,-999.0,-999.0,69,-99.99,,,-99.99,Netatmo,2013-02-28 17:04:00,
2013-02-28 18:08:00,53.4,43.6,30.24,North,-999,-999.0,-999.0,69,-99.99,,,-99.99,Netatmo,2013-02-28 17:08:00,
2013-02-28 18:09:00,53.4,43.6,30.24,North,-999,-999.0,-999.0,69,-99.99,,,-99.99,Netatmo,2013-02-28 17:09:00,
2013-02-28 18:14:00,53.4,43.6,30.24,North,-999,-999.0,-999.0,69,-99.99,,,-99.99,Netatmo,2013-02-28 17:14:00,
2013-02-28 18:18:00,53.1,43.3,30.24,North,-999,-999.0,-999.0,69,-99.99,,,-99.99,Netatmo,2013-02-28 17:18:00,
2013-02-28 18:19:00,53.1,43.3,30.24,North,-999,-999.0,-999.0,69,-99.99,,,-99.99,Netatmo,2013-02-28 17:19:00,
2013-02-28 18:23:00,53.1,43.3,30.24,North,-999,-999.0,-999.0,69,-99.99,,,-99.99,Netatmo,2013-02-28 17:23:00,
2013-02-28 18:29:00,52.9,43.5,30.24,North,-999,-999.0,-999.0,70,-99.99,,,-99.99,Netatmo,2013-02-28 17:29:00,
2013-02-28 18:38:00,52.9,43.5,30.24,North,-999,-999.0,-999.0,70,-99.99,,,-99.99,Netatmo,2013-02-28 17:38:00,
2013-02-28 18:48:00,52.7,43.3,30.24,North,-999,-999.0,-999.0,70,-99.99,,,-99.99,Netatmo,2013-02-28 17:48:00,
2013-02-28 18:53:00,52.7,43.3,30.24,North,-999,-999.0,-999.0,70,-99.99,,,-99.99,Netatmo,2013-02-28 17:53:00,
2013-02-28 19:03:00,52.5,43.5,30.24,North,-999,-999.0,-999.0,71,-99.99,,,-99.99,Netatmo,2013-02-28 18:03:00,
2013-02-28 19:08:00,52.5,43.5,30.24,North,-999,-999.0,-999.0,71,-99.99,,,-99.99,Netatmo,2013-02-28 18:08:00,
2013-02-28 19:13:00,52.2,43.1,30.24,North,-999,-999.0,-999.0,71,-99.99,,,-99.99,Netatmo,2013-02-28 18:13:00,
2013-02-28 19:18:00,52.2,43.1,30.24,North,-999,-999.0,-999.0,71,-99.99,,,-99.99,Netatmo,2013-02-28 18:18:00,
2013-02-28 19:23:00,51.6,43.0,30.24,North,-999,-999.0,-999.0,72,-99.99,,,-99.99,Netatmo,2013-02-28 18:23:00,
2013-02-28 19:28:00,51.6,43.0,30.24,North,-999,-999.0,-999.0,72,-99.99,,,-99.99,Netatmo,2013-02-28 18:28:00,
2013-02-28 19:33:00,51.3,42.6,30.24,North,-999,-999.0,-999.0,72,-99.99,,,-99.99,Netatmo,2013-02-28 18:33:00,
2013-02-28 19:38:00,51.3,42.6,30.24,North,-999,-999.0,-999.0,72,-99.99,,,-99.99,Netatmo,2013-02-28 18:38:00,
2013-02-28 19:43:00,50.7,42.1,30.24,North,-999,-999.0,-999.0,72,-99.99,,,-99.99,Netatmo,2013-02-28 18:43:00,
2013-02-28 19:48:00,50.7,42.1,30.24,North,-999,-999.0,-999.0,72,-99.99,,,-99.99,Netatmo,2013-02-28 18:48:00,
2013-02-28 19:53:00,50.4,42.1,30.24,North,-999,-999.0,-999.0,73,-99.99,,,-99.99,Netatmo,2013-02-28 18:53:00,
2013-02-28 19:58:00,50.4,42.1,30.24,North,-999,-999.0,-999.0,73,-99.99,,,-99.99,Netatmo,2013-02-28 18:58:00,
2013-02-28 20:03:00,50.2,41.9,30.24,North,-999,-999.0,-999.0,73,-99.99,,,-99.99,Netatmo,2013-02-28 19:03:00,
2013-02-28 20:08:00,50.2,41.9,30.24,North,-999,-999.0,-999.0,73,-99.99,,,-99.99,Netatmo,2013-02-28 19:08:00,
2013-02-28 20:18:00,49.8,41.9,30.24,North,-999,-999.0,-999.0,74,-99.99,,,-99.99,Netatmo,2013-02-28 19:18:00,
2013-02-28 20:23:00,49.6,41.8,30.24,North,-999,-999.0,-999.0,74,-99.99,,,-99.99,Netatmo,2013-02-28 19:23:00,
2013-02-28 20:33:00,49.5,41.6,30.24,North,-999,-999.0,-999.0,74,-99.99,,,-99.99,Netatmo,2013-02-28 19:33:00,
2013-02-28 20:38:00,49.5,41.6,30.24,North,-999,-999.0,-999.0,74,-99.99,,,-99.99,Netatmo,2013-02-28 19:38:00,
2013-02-28 20:48:00,49.3,41.4,30.24,North,-999,-999.0,-999.0,74,-99.99,,,-99.99,Netatmo,2013-02-28 19:48:00,
2013-02-28 20:53:00,49.1,41.6,30.24,North,-999,-999.0,-999.0,75,-99.99,,,-99.99,Netatmo,2013-02-28 19:53:00,
2013-02-28 20:58:00,49.1,41.6,30.24,North,-999,-999.0,-999.0,75,-99.99,,,-99.99,Netatmo,2013-02-28 19:58:00,
2013-02-28 21:08:00,49.1,41.6,30.24,North,-999,-999.0,-999.0,75,-99.99,,,-99.99,Netatmo,2013-02-28 20:08:00,
2013-02-28 21:18:00,49.1,41.6,30.24,North,-999,-999.0,-999.0,75,-99.99,,,-99.99,Netatmo,2013-02-28 20:18:00,
2013-02-28 21:23:00,49.1,41.6,30.24,North,-999,-999.0,-999.0,75,-99.99,,,-99.99,Netatmo,2013-02-28 20:23:00,
2013-02-28 21:28:00,49.1,41.6,30.24,North,-999,-999.0,-999.0,75,-99.99,,,-99.99,Netatmo,2013-02-28 20:28:00,
2013-02-28 21:33:00,49.1,41.6,30.24,North,-999,-999.0,-999.0,75,-99.99,,,-99.99,Netatmo,2013-02-28 20:33:00,
2013-02-28 21:38:00,49.1,41.6,30.24,North,-999,-999.0,-999.0,75,-99.99,,,-99.99,Netatmo,2013-02-28 20:38:00,
2013-02-28 21:43:00,49.1,41.9,30.24,North,-999,-999.0,-999.0,76,-99.99,,,-99.99,Netatmo,2013-02-28 20:43:00,
2013-02-28 21:48:00,49.1,41.9,30.24,North,-999,-999.0,-999.0,76,-99.99,,,-99.99,Netatmo,2013-02-28 20:48:00,
2013-02-28 21:53:00,48.9,41.8,30.24,North,-999,-999.0,-999.0,76,-99.99,,,-99.99,Netatmo,2013-02-28 20:53:00,
2013-02-28 21:58:00,48.9,41.8,30.24,North,-999,-999.0,-999.0,76,-99.99,,,-99.99,Netatmo,2013-02-28 20:58:00,
2013-02-28 22:03:00,48.7,41.6,30.24,North,-999,-999.0,-999.0,76,-99.99,,,-99.99,Netatmo,2013-02-28 21:03:00,
2013-02-28 22:08:00,48.7,41.6,30.24,North,-999,-999.0,-999.0,76,-99.99,,,-99.99,Netatmo,2013-02-28 21:08:00,
2013-02-28 22:18:00,48.7,41.6,30.24,North,-999,-999.0,-999.0,76,-99.99,,,-99.99,Netatmo,2013-02-28 21:18:00,
2013-02-28 22:23:00,48.6,41.4,30.24,North,-999,-999.0,-999.0,76,-99.99,,,-99.99,Netatmo,2013-02-28 21:23:00,
2013-02-28 22:28:00,48.6,41.4,30.24,North,-999,-999.0,-999.0,76,-99.99,,,-99.99,Netatmo,2013-02-28 21:28:00,
2013-02-28 22:33:00,48.6,41.4,30.24,North,-999,-999.0,-999.0,76,-99.99,,,-99.99,Netatmo,2013-02-28 21:33:00,
2013-02-28 22:43:00,48.7,41.6,30.23,North,-999,-999.0,-999.0,76,-99.99,,,-99.99,Netatmo,2013-02-28 21:43:00,
2013-02-28 22:48:00,48.7,41.6,30.23,North,-999,-999.0,-999.0,76,-99.99,,,-99.99,Netatmo,2013-02-28 21:48:00,
2013-02-28 22:53:00,48.7,41.6,30.23,North,-999,-999.0,-999.0,76,-99.99,,,-99.99,Netatmo,2013-02-28 21:53:00,
2013-02-28 22:58:00,48.7,41.6,30.23,North,-999,-999.0,-999.0,76,-99.99,,,-99.99,Netatmo,2013-02-28 21:58:00,
2013-02-28 23:03:00,48.7,41.9,30.23,North,-999,-999.0,-999.0,77,-99.99,,,-99.99,Netatmo,2013-02-28 22:03:00,
2013-02-28 23:08:00,48.7,41.9,30.23,North,-999,-999.0,-999.0,77,-99.99,,,-99.99,Netatmo,2013-02-28 22:08:00,
2013-02-28 23:13:00,48.9,42.1,30.22,North,-999,-999.0,-999.0,77,-99.99,,,-99.99,Netatmo,2013-02-28 22:13:00,
2013-02-28 23:20:00,48.9,42.1,30.22,North,-999,-999.0,-999.0,77,-99.99,,,-99.99,Netatmo,2013-02-28 22:20:00,
2013-02-28 23:28:00,48.7,41.6,30.22,North,-999,-999.0,-999.0,76,-99.99,,,-99.99,Netatmo,2013-02-28 22:28:00,
2013-02-28 23:33:00,48.6,41.4,30.22,North,-999,-999.0,-999.0,76,-99.99,,,-99.99,Netatmo,2013-02-28 22:33:00,
2013-02-28 23:38:00,48.6,41.4,30.22,North,-999,-999.0,-999.0,76,-99.99,,,-99.99,Netatmo,2013-02-28 22:38:00,
2013-02-28 23:43:00,48.4,41.6,30.21,North,-999,-999.0,-999.0,77,-99.99,,,-99.99,Netatmo,2013-02-28 22:43:00,
2013-02-28 23:48:00,48.4,41.6,30.21,North,-999,-999.0,-999.0,77,-99.99,,,-99.99,Netatmo,2013-02-28 22:48:00,
2013-02-28 23:53:00,48.2,41.4,30.21,North,-999,-999.0,-999.0,77,-99.99,,,-99.99,Netatmo,2013-02-28 22:53:00,
2013-02-28 23:58:00,48.2,41.4,30.21,North,-999,-999.0,-999.0,77,-99.99,,,-99.99,Netatmo,2013-02-28 22:58:00,